sensor_id;sensor_type;location;lat;lon;timestamp;temperature;humidity
65470;DHT22;52067;50.710;14.492;2023-04-15T00:02:18;7.00;90.30
65470;DHT22;52067;50.710;14.492;2023-04-15T00:04:47;7.05;90.24
65470;DHT22;52067;50.710;14.492;2023-04-15T00:07:12;6.99;90.12
65470;DHT22;52067;50.710;14.492;2023-04-15T00:09:40;6.99;90.11
65470;DHT22;52067;50.710;14.492;2023-04-15T00:12:05;6.96;90.22
65470;DHT22;52067;50.710;14.492;2023-04-15T00:14:32;6.81;90.40
65470;DHT22;52067;50.710;14.492;2023-04-15T00:16:58;6.85;90.36
65470;DHT22;52067;50.710;14.492;2023-04-15T00:19:23;6.87;90.33
65470;DHT22;52067;50.710;14.492;2023-04-15T00:21:49;6.84;90.17
65470;DHT22;52067;50.710;14.492;2023-04-15T00:24:14;6.77;90.38
65470;DHT22;52067;50.710;14.492;2023-04-15T00:26:40;6.74;90.53
65470;DHT22;52067;50.710;14.492;2023-04-15T00:29:05;6.77;90.38
65470;DHT22;52067;50.710;14.492;2023-04-15T00:31:31;6.71;90.81
65470;DHT22;52067;50.710;14.492;2023-04-15T00:33:57;6.74;90.69
65470;DHT22;52067;50.710;14.492;2023-04-15T00:36:22;6.72;90.63
65470;DHT22;52067;50.710;14.492;2023-04-15T00:38:48;6.71;90.65
65470;DHT22;52067;50.710;14.492;2023-04-15T00:41:14;6.65;90.63
65470;DHT22;52067;50.710;14.492;2023-04-15T00:43:39;6.68;90.67
65470;DHT22;52067;50.710;14.492;2023-04-15T00:46:05;6.69;90.71
65470;DHT22;52067;50.710;14.492;2023-04-15T00:48:31;6.65;90.77
65470;DHT22;52067;50.710;14.492;2023-04-15T00:50:57;6.63;90.68
65470;DHT22;52067;50.710;14.492;2023-04-15T00:53:23;6.58;90.86
65470;DHT22;52067;50.710;14.492;2023-04-15T00:55:49;6.60;91.01
65470;DHT22;52067;50.710;14.492;2023-04-15T00:58:15;6.58;90.97
65470;DHT22;52067;50.710;14.492;2023-04-15T01:00:41;6.54;90.92
65470;DHT22;52067;50.710;14.492;2023-04-15T01:03:07;6.54;90.73
65470;DHT22;52067;50.710;14.492;2023-04-15T01:05:33;6.58;91.03
65470;DHT22;52067;50.710;14.492;2023-04-15T01:07:59;6.55;90.88
65470;DHT22;52067;50.710;14.492;2023-04-15T01:10:24;6.47;91.10
65470;DHT22;52067;50.710;14.492;2023-04-15T01:12:50;6.54;91.18
65470;DHT22;52067;50.710;14.492;2023-04-15T01:15:15;6.52;90.93
65470;DHT22;52067;50.710;14.492;2023-04-15T01:17:41;6.55;91.03
65470;DHT22;52067;50.710;14.492;2023-04-15T01:20:07;6.50;90.92
65470;DHT22;52067;50.710;14.492;2023-04-15T01:22:35;6.47;90.93
65470;DHT22;52067;50.710;14.492;2023-04-15T01:25:05;6.51;91.06
65470;DHT22;52067;50.710;14.492;2023-04-15T01:27:34;6.50;91.09
65470;DHT22;52067;50.710;14.492;2023-04-15T01:30:00;6.51;91.12
65470;DHT22;52067;50.710;14.492;2023-04-15T01:32:27;6.54;91.06
65470;DHT22;52067;50.710;14.492;2023-04-15T01:34:53;6.48;91.03
65470;DHT22;52067;50.710;14.492;2023-04-15T01:37:18;6.48;91.03
65470;DHT22;52067;50.710;14.492;2023-04-15T01:39:44;6.52;90.98
65470;DHT22;52067;50.710;14.492;2023-04-15T01:42:10;6.54;91.01
65470;DHT22;52067;50.710;14.492;2023-04-15T01:44:35;6.58;90.92
65470;DHT22;52067;50.710;14.492;2023-04-15T01:47:01;6.57;90.95
65470;DHT22;52067;50.710;14.492;2023-04-15T01:49:26;6.52;90.95
65470;DHT22;52067;50.710;14.492;2023-04-15T01:51:52;6.52;91.03
65470;DHT22;52067;50.710;14.492;2023-04-15T01:54:18;6.54;91.00
65470;DHT22;52067;50.710;14.492;2023-04-15T01:56:43;6.67;90.85
65470;DHT22;52067;50.710;14.492;2023-04-15T01:59:09;6.65;90.94
65470;DHT22;52067;50.710;14.492;2023-04-15T02:01:34;6.63;90.85
65470;DHT22;52067;50.710;14.492;2023-04-15T02:04:00;6.72;90.66
65470;DHT22;52067;50.710;14.492;2023-04-15T02:06:25;6.72;90.48
65470;DHT22;52067;50.710;14.492;2023-04-15T02:08:52;6.81;90.15
65470;DHT22;52067;50.710;14.492;2023-04-15T02:11:17;6.88;90.01
65470;DHT22;52067;50.710;14.492;2023-04-15T02:13:44;6.84;90.17
65470;DHT22;52067;50.710;14.492;2023-04-15T02:16:16;6.67;90.52
65470;DHT22;52067;50.710;14.492;2023-04-15T02:18:46;6.69;90.54
65470;DHT22;52067;50.710;14.492;2023-04-15T02:21:12;6.57;90.61
65470;DHT22;52067;50.710;14.492;2023-04-15T02:23:37;6.55;90.90
65470;DHT22;52067;50.710;14.492;2023-04-15T02:26:03;6.54;90.95
65470;DHT22;52067;50.710;14.492;2023-04-15T02:28:28;6.52;91.02
65470;DHT22;52067;50.710;14.492;2023-04-15T02:30:53;6.52;91.08
65470;DHT22;52067;50.710;14.492;2023-04-15T02:33:21;6.48;91.16
65470;DHT22;52067;50.710;14.492;2023-04-15T02:35:47;6.48;91.22
65470;DHT22;52067;50.710;14.492;2023-04-15T02:38:13;6.48;91.17
65470;DHT22;52067;50.710;14.492;2023-04-15T02:40:40;6.41;91.26
65470;DHT22;52067;50.710;14.492;2023-04-15T02:43:06;6.50;91.22
65470;DHT22;52067;50.710;14.492;2023-04-15T02:45:32;6.47;91.19
65470;DHT22;52067;50.710;14.492;2023-04-15T02:47:57;6.48;91.23
65470;DHT22;52067;50.710;14.492;2023-04-15T02:50:23;6.47;91.18
65470;DHT22;52067;50.710;14.492;2023-04-15T02:52:50;6.45;91.43
65470;DHT22;52067;50.710;14.492;2023-04-15T02:55:16;6.51;91.56
65470;DHT22;52067;50.710;14.492;2023-04-15T02:57:42;6.51;91.64
65470;DHT22;52067;50.710;14.492;2023-04-15T03:00:08;6.57;91.61
65470;DHT22;52067;50.710;14.492;2023-04-15T03:02:36;6.71;91.56
65470;DHT22;52067;50.710;14.492;2023-04-15T03:05:02;6.87;91.50
65470;DHT22;52067;50.710;14.492;2023-04-15T03:07:28;6.79;91.36
65470;DHT22;52067;50.710;14.492;2023-04-15T03:09:54;6.85;91.31
65470;DHT22;52067;50.710;14.492;2023-04-15T03:12:19;6.88;91.31
65470;DHT22;52067;50.710;14.492;2023-04-15T03:14:44;6.93;91.14
65470;DHT22;52067;50.710;14.492;2023-04-15T03:17:10;6.96;91.16
65470;DHT22;52067;50.710;14.492;2023-04-15T03:19:35;7.03;91.14
65470;DHT22;52067;50.710;14.492;2023-04-15T03:22:01;7.18;91.16
65470;DHT22;52067;50.710;14.492;2023-04-15T03:24:26;7.13;91.04
65470;DHT22;52067;50.710;14.492;2023-04-15T03:26:53;6.95;91.08
65470;DHT22;52067;50.710;14.492;2023-04-15T03:29:19;6.91;91.37
65470;DHT22;52067;50.710;14.492;2023-04-15T03:31:45;7.06;91.39
65470;DHT22;52067;50.710;14.492;2023-04-15T03:34:10;7.22;91.26
65470;DHT22;52067;50.710;14.492;2023-04-15T03:36:36;7.26;90.98
65470;DHT22;52067;50.710;14.492;2023-04-15T03:39:01;7.30;90.87
65470;DHT22;52067;50.710;14.492;2023-04-15T03:41:27;7.30;90.80
65470;DHT22;52067;50.710;14.492;2023-04-15T03:43:53;7.00;90.69
65470;DHT22;52067;50.710;14.492;2023-04-15T03:46:18;7.15;90.89
65470;DHT22;52067;50.710;14.492;2023-04-15T03:48:44;6.93;91.22
65470;DHT22;52067;50.710;14.492;2023-04-15T03:51:09;7.10;91.25
65470;DHT22;52067;50.710;14.492;2023-04-15T03:53:35;7.15;91.10
65470;DHT22;52067;50.710;14.492;2023-04-15T03:56:00;7.23;90.92
65470;DHT22;52067;50.710;14.492;2023-04-15T03:58:26;7.20;90.89
65470;DHT22;52067;50.710;14.492;2023-04-15T04:00:51;7.15;91.05
65470;DHT22;52067;50.710;14.492;2023-04-15T04:03:17;7.08;91.34
65470;DHT22;52067;50.710;14.492;2023-04-15T04:05:42;7.20;91.16
65470;DHT22;52067;50.710;14.492;2023-04-15T04:08:09;7.18;90.90
65470;DHT22;52067;50.710;14.492;2023-04-15T04:10:34;7.24;90.83
65470;DHT22;52067;50.710;14.492;2023-04-15T04:13:00;7.31;90.57
65470;DHT22;52067;50.710;14.492;2023-04-15T04:15:26;7.13;90.62
65470;DHT22;52067;50.710;14.492;2023-04-15T04:17:51;7.15;90.89
65470;DHT22;52067;50.710;14.492;2023-04-15T04:20:16;7.08;90.93
65470;DHT22;52067;50.710;14.492;2023-04-15T04:22:42;7.06;90.97
65470;DHT22;52067;50.710;14.492;2023-04-15T04:25:08;7.22;90.85
65470;DHT22;52067;50.710;14.492;2023-04-15T04:27:34;7.23;90.79
65470;DHT22;52067;50.710;14.492;2023-04-15T04:30:00;7.23;90.63
65470;DHT22;52067;50.710;14.492;2023-04-15T04:32:26;7.29;90.58
65470;DHT22;52067;50.710;14.492;2023-04-15T04:34:51;7.27;90.42
65470;DHT22;52067;50.710;14.492;2023-04-15T04:37:17;7.44;90.54
65470;DHT22;52067;50.710;14.492;2023-04-15T04:39:42;7.53;90.27
65470;DHT22;52067;50.710;14.492;2023-04-15T04:42:07;7.58;90.19
65470;DHT22;52067;50.710;14.492;2023-04-15T04:44:33;7.51;90.06
65470;DHT22;52067;50.710;14.492;2023-04-15T04:46:58;7.60;90.19
65470;DHT22;52067;50.710;14.492;2023-04-15T04:49:24;7.63;90.23
65470;DHT22;52067;50.710;14.492;2023-04-15T04:51:49;7.58;89.84
65470;DHT22;52067;50.710;14.492;2023-04-15T04:54:15;7.60;89.89
65470;DHT22;52067;50.710;14.492;2023-04-15T04:56:41;7.44;89.43
65470;DHT22;52067;50.710;14.492;2023-04-15T04:59:06;7.31;89.89
65470;DHT22;52067;50.710;14.492;2023-04-15T05:01:32;7.23;89.83
65470;DHT22;52067;50.710;14.492;2023-04-15T05:03:58;7.19;89.98
65470;DHT22;52067;50.710;14.492;2023-04-15T05:06:23;7.18;89.87
65470;DHT22;52067;50.710;14.492;2023-04-15T05:08:49;7.00;90.05
65470;DHT22;52067;50.710;14.492;2023-04-15T05:11:14;6.88;90.41
65470;DHT22;52067;50.710;14.492;2023-04-15T05:13:40;6.96;90.21
65470;DHT22;52067;50.710;14.492;2023-04-15T05:16:05;6.84;90.62
65470;DHT22;52067;50.710;14.492;2023-04-15T05:18:31;6.68;90.26
65470;DHT22;52067;50.710;14.492;2023-04-15T05:20:57;6.61;89.79
65470;DHT22;52067;50.710;14.492;2023-04-15T05:23:23;6.54;90.09
65470;DHT22;52067;50.710;14.492;2023-04-15T05:25:48;6.57;90.06
65470;DHT22;52067;50.710;14.492;2023-04-15T05:28:14;6.57;89.93
65470;DHT22;52067;50.710;14.492;2023-04-15T05:30:40;6.64;90.06
65470;DHT22;52067;50.710;14.492;2023-04-15T05:33:05;6.51;90.19
65470;DHT22;52067;50.710;14.492;2023-04-15T05:35:31;6.51;88.98
65470;DHT22;52067;50.710;14.492;2023-04-15T05:37:56;6.36;89.36
65470;DHT22;52067;50.710;14.492;2023-04-15T05:40:21;6.38;89.39
65470;DHT22;52067;50.710;14.492;2023-04-15T05:42:47;6.48;89.43
65470;DHT22;52067;50.710;14.492;2023-04-15T05:45:12;6.37;89.98
65470;DHT22;52067;50.710;14.492;2023-04-15T05:47:38;6.36;89.12
65470;DHT22;52067;50.710;14.492;2023-04-15T05:50:04;6.36;89.35
65470;DHT22;52067;50.710;14.492;2023-04-15T05:52:30;6.33;88.77
65470;DHT22;52067;50.710;14.492;2023-04-15T05:54:55;6.44;88.61
65470;DHT22;52067;50.710;14.492;2023-04-15T05:57:21;6.44;88.56
65470;DHT22;52067;50.710;14.492;2023-04-15T05:59:46;6.45;87.92
65470;DHT22;52067;50.710;14.492;2023-04-15T06:02:11;6.30;88.26
65470;DHT22;52067;50.710;14.492;2023-04-15T06:04:37;6.57;88.40
65470;DHT22;52067;50.710;14.492;2023-04-15T06:07:03;6.61;88.33
65470;DHT22;52067;50.710;14.492;2023-04-15T06:09:28;6.64;87.77
65470;DHT22;52067;50.710;14.492;2023-04-15T06:11:54;6.65;87.64
65470;DHT22;52067;50.710;14.492;2023-04-15T06:14:21;6.74;86.78
65470;DHT22;52067;50.710;14.492;2023-04-15T06:16:46;6.52;86.41
65470;DHT22;52067;50.710;14.492;2023-04-15T06:19:11;6.54;87.02
65470;DHT22;52067;50.710;14.492;2023-04-15T06:21:38;6.60;87.43
65470;DHT22;52067;50.710;14.492;2023-04-15T06:24:04;6.82;87.64
65470;DHT22;52067;50.710;14.492;2023-04-15T06:26:29;6.81;86.64
65470;DHT22;52067;50.710;14.492;2023-04-15T06:28:55;6.93;86.51
65470;DHT22;52067;50.710;14.492;2023-04-15T06:31:21;6.99;86.75
65470;DHT22;52067;50.710;14.492;2023-04-15T06:33:46;6.95;86.25
65470;DHT22;52067;50.710;14.492;2023-04-15T06:36:12;6.87;86.25
65470;DHT22;52067;50.710;14.492;2023-04-15T06:38:37;6.92;86.25
65470;DHT22;52067;50.710;14.492;2023-04-15T06:41:03;7.03;86.60
65470;DHT22;52067;50.710;14.492;2023-04-15T06:43:28;7.06;86.75
65470;DHT22;52067;50.710;14.492;2023-04-15T06:45:55;7.10;86.45
65470;DHT22;52067;50.710;14.492;2023-04-15T06:48:21;7.06;86.52
65470;DHT22;52067;50.710;14.492;2023-04-15T06:50:46;7.26;86.47
65470;DHT22;52067;50.710;14.492;2023-04-15T06:53:13;7.05;86.18
65470;DHT22;52067;50.710;14.492;2023-04-15T06:55:38;6.98;86.49
65470;DHT22;52067;50.710;14.492;2023-04-15T06:58:04;6.95;85.78
65470;DHT22;52067;50.710;14.492;2023-04-15T07:00:30;6.89;85.80
65470;DHT22;52067;50.710;14.492;2023-04-15T07:02:57;6.58;85.06
65470;DHT22;52067;50.710;14.492;2023-04-15T07:05:23;6.40;85.93
65470;DHT22;52067;50.710;14.492;2023-04-15T07:07:49;6.65;86.59
65470;DHT22;52067;50.710;14.492;2023-04-15T07:10:15;6.65;86.66
65470;DHT22;52067;50.710;14.492;2023-04-15T07:12:41;6.64;85.79
65470;DHT22;52067;50.710;14.492;2023-04-15T07:15:06;6.65;84.59
65470;DHT22;52067;50.710;14.492;2023-04-15T07:17:32;6.64;83.75
65470;DHT22;52067;50.710;14.492;2023-04-15T07:19:57;6.54;82.96
65470;DHT22;52067;50.710;14.492;2023-04-15T07:22:23;6.40;83.89
65470;DHT22;52067;50.710;14.492;2023-04-15T07:24:48;6.48;83.09
65470;DHT22;52067;50.710;14.492;2023-04-15T07:27:13;6.65;81.50
65470;DHT22;52067;50.710;14.492;2023-04-15T07:29:39;6.57;82.20
65470;DHT22;52067;50.710;14.492;2023-04-15T07:32:04;6.88;82.12
65470;DHT22;52067;50.710;14.492;2023-04-15T07:34:30;7.31;81.26
65470;DHT22;52067;50.710;14.492;2023-04-15T07:36:55;7.56;79.62
65470;DHT22;52067;50.710;14.492;2023-04-15T07:39:21;7.50;78.05
65470;DHT22;52067;50.710;14.492;2023-04-15T07:41:47;7.47;77.74
65470;DHT22;52067;50.710;14.492;2023-04-15T07:44:13;7.42;78.02
65470;DHT22;52067;50.710;14.492;2023-04-15T07:46:38;7.51;77.96
65470;DHT22;52067;50.710;14.492;2023-04-15T07:49:04;7.88;77.37
65470;DHT22;52067;50.710;14.492;2023-04-15T07:51:30;7.81;75.59
65470;DHT22;52067;50.710;14.492;2023-04-15T07:53:56;7.73;76.36
65470;DHT22;52067;50.710;14.492;2023-04-15T07:56:21;7.44;77.83
65470;DHT22;52067;50.710;14.492;2023-04-15T07:58:47;7.30;78.33
65470;DHT22;52067;50.710;14.492;2023-04-15T08:01:12;7.47;77.83
65470;DHT22;52067;50.710;14.492;2023-04-15T08:03:38;7.51;77.69
65470;DHT22;52067;50.710;14.492;2023-04-15T08:06:04;7.68;77.45
65470;DHT22;52067;50.710;14.492;2023-04-15T08:08:29;7.73;77.77
65470;DHT22;52067;50.710;14.492;2023-04-15T08:10:55;7.88;76.01
65470;DHT22;52067;50.710;14.492;2023-04-15T08:13:20;8.25;75.74
65470;DHT22;52067;50.710;14.492;2023-04-15T08:16:12;8.30;73.67
65470;DHT22;52067;50.710;14.492;2023-04-15T08:18:37;8.26;75.26
65470;DHT22;52067;50.710;14.492;2023-04-15T08:21:03;8.24;72.77
65470;DHT22;52067;50.710;14.492;2023-04-15T08:23:28;8.08;71.89
65470;DHT22;52067;50.710;14.492;2023-04-15T08:25:54;7.64;73.22
65470;DHT22;52067;50.710;14.492;2023-04-15T08:28:19;7.89;74.71
65470;DHT22;52067;50.710;14.492;2023-04-15T08:30:45;7.99;73.16
65470;DHT22;52067;50.710;14.492;2023-04-15T08:33:11;7.82;72.97
65470;DHT22;52067;50.710;14.492;2023-04-15T08:35:36;7.82;73.48
65470;DHT22;52067;50.710;14.492;2023-04-15T08:38:02;8.01;72.90
65470;DHT22;52067;50.710;14.492;2023-04-15T08:40:34;7.94;74.01
65470;DHT22;52067;50.710;14.492;2023-04-15T08:43:02;7.81;74.69
65470;DHT22;52067;50.710;14.492;2023-04-15T08:45:29;7.60;74.86
65470;DHT22;52067;50.710;14.492;2023-04-15T08:47:55;7.66;75.81
65470;DHT22;52067;50.710;14.492;2023-04-15T08:50:21;7.70;76.72
65470;DHT22;52067;50.710;14.492;2023-04-15T08:52:53;8.10;75.73
65470;DHT22;52067;50.710;14.492;2023-04-15T08:55:20;8.05;75.31
65470;DHT22;52067;50.710;14.492;2023-04-15T08:57:45;8.50;73.62
65470;DHT22;52067;50.710;14.492;2023-04-15T09:00:11;8.35;72.82
65470;DHT22;52067;50.710;14.492;2023-04-15T09:02:38;8.39;72.40
65470;DHT22;52067;50.710;14.492;2023-04-15T09:05:04;8.50;71.35
65470;DHT22;52067;50.710;14.492;2023-04-15T09:07:33;8.16;71.62
65470;DHT22;52067;50.710;14.492;2023-04-15T09:09:58;7.97;71.87
65470;DHT22;52067;50.710;14.492;2023-04-15T09:12:24;8.16;73.62
65470;DHT22;52067;50.710;14.492;2023-04-15T09:14:49;7.92;73.37
65470;DHT22;52067;50.710;14.492;2023-04-15T09:17:18;8.08;72.28
65470;DHT22;52067;50.710;14.492;2023-04-15T09:19:44;8.19;72.60
65470;DHT22;52067;50.710;14.492;2023-04-15T09:22:10;8.15;71.85
65470;DHT22;52067;50.710;14.492;2023-04-15T09:24:37;8.32;71.09
65470;DHT22;52067;50.710;14.492;2023-04-15T09:27:03;8.53;71.77
65470;DHT22;52067;50.710;14.492;2023-04-15T09:29:28;8.73;71.78
65470;DHT22;52067;50.710;14.492;2023-04-15T09:31:54;8.95;71.62
65470;DHT22;52067;50.710;14.492;2023-04-15T09:34:19;9.05;70.46
65470;DHT22;52067;50.710;14.492;2023-04-15T09:36:56;9.18;68.06
65470;DHT22;52067;50.710;14.492;2023-04-15T09:39:22;8.91;71.29
65470;DHT22;52067;50.710;14.492;2023-04-15T09:42:07;8.94;68.42
65470;DHT22;52067;50.710;14.492;2023-04-15T09:44:33;8.56;71.01
65470;DHT22;52067;50.710;14.492;2023-04-15T09:46:58;8.61;71.99
65470;DHT22;52067;50.710;14.492;2023-04-15T09:49:24;8.84;69.83
65470;DHT22;52067;50.710;14.492;2023-04-15T09:51:49;9.05;69.60
65470;DHT22;52067;50.710;14.492;2023-04-15T09:54:20;9.12;68.60
65470;DHT22;52067;50.710;14.492;2023-04-15T09:56:46;9.08;69.36
65470;DHT22;52067;50.710;14.492;2023-04-15T09:59:11;8.97;69.84
65470;DHT22;52067;50.710;14.492;2023-04-15T10:01:37;9.24;71.16
65470;DHT22;52067;50.710;14.492;2023-04-15T10:04:05;9.34;69.08
65470;DHT22;52067;50.710;14.492;2023-04-15T10:06:30;9.42;69.33
65470;DHT22;52067;50.710;14.492;2023-04-15T10:08:57;9.46;67.89
65470;DHT22;52067;50.710;14.492;2023-04-15T10:11:23;9.10;67.28
65470;DHT22;52067;50.710;14.492;2023-04-15T10:13:50;9.19;68.56
65470;DHT22;52067;50.710;14.492;2023-04-15T10:16:19;8.91;69.19
65470;DHT22;52067;50.710;14.492;2023-04-15T10:18:54;9.04;70.00
65470;DHT22;52067;50.710;14.492;2023-04-15T10:21:19;9.22;70.59
65470;DHT22;52067;50.710;14.492;2023-04-15T10:23:47;9.80;68.69
65470;DHT22;52067;50.710;14.492;2023-04-15T10:26:12;9.39;67.89
65470;DHT22;52067;50.710;14.492;2023-04-15T10:28:42;9.32;68.65
65470;DHT22;52067;50.710;14.492;2023-04-15T10:31:11;9.40;67.16
65470;DHT22;52067;50.710;14.492;2023-04-15T10:33:37;9.43;67.84
65470;DHT22;52067;50.710;14.492;2023-04-15T10:36:04;9.01;68.09
65470;DHT22;52067;50.710;14.492;2023-04-15T10:38:44;9.22;69.24
65470;DHT22;52067;50.710;14.492;2023-04-15T10:41:31;9.46;66.83
65470;DHT22;52067;50.710;14.492;2023-04-15T10:46:43;9.34;67.59
65470;DHT22;52067;50.710;14.492;2023-04-15T10:49:14;10.08;67.01
65470;DHT22;52067;50.710;14.492;2023-04-15T10:51:50;10.27;63.58
65470;DHT22;52067;50.710;14.492;2023-04-15T10:54:31;10.12;62.93
65470;DHT22;52067;50.710;14.492;2023-04-15T10:59:31;9.60;66.31
65470;DHT22;52067;50.710;14.492;2023-04-15T11:02:01;9.72;65.87
65470;DHT22;52067;50.710;14.492;2023-04-15T11:04:52;9.76;65.26
65470;DHT22;52067;50.710;14.492;2023-04-15T11:12:51;9.53;66.47
65470;DHT22;52067;50.710;14.492;2023-04-15T11:15:32;9.70;66.32
65470;DHT22;52067;50.710;14.492;2023-04-15T11:18:10;9.72;65.72
65470;DHT22;52067;50.710;14.492;2023-04-15T11:20:39;9.97;65.34
65470;DHT22;52067;50.710;14.492;2023-04-15T11:23:05;10.10;66.01
65470;DHT22;52067;50.710;14.492;2023-04-15T11:25:34;9.94;67.01
65470;DHT22;52067;50.710;14.492;2023-04-15T11:28:00;10.08;65.93
65470;DHT22;52067;50.710;14.492;2023-04-15T11:30:28;9.70;67.26
65470;DHT22;52067;50.710;14.492;2023-04-15T11:32:57;9.25;66.85
65470;DHT22;52067;50.710;14.492;2023-04-15T11:35:23;9.56;66.83
65470;DHT22;52067;50.710;14.492;2023-04-15T11:37:49;9.82;67.40
65470;DHT22;52067;50.710;14.492;2023-04-15T11:40:15;10.03;66.23
65470;DHT22;52067;50.710;14.492;2023-04-15T11:42:43;10.00;66.75
65470;DHT22;52067;50.710;14.492;2023-04-15T11:45:10;9.67;67.50
65470;DHT22;52067;50.710;14.492;2023-04-15T11:47:39;9.39;64.11
65470;DHT22;52067;50.710;14.492;2023-04-15T11:50:20;9.74;64.61
65470;DHT22;52067;50.710;14.492;2023-04-15T11:52:57;10.05;65.17
65470;DHT22;52067;50.710;14.492;2023-04-15T11:55:23;10.24;64.20
65470;DHT22;52067;50.710;14.492;2023-04-15T11:58:05;10.01;64.96
65470;DHT22;52067;50.710;14.492;2023-04-15T12:00:32;9.84;64.09
65470;DHT22;52067;50.710;14.492;2023-04-15T12:03:17;9.90;65.07
65470;DHT22;52067;50.710;14.492;2023-04-15T12:06:22;10.07;64.41
65470;DHT22;52067;50.710;14.492;2023-04-15T12:13:55;10.79;61.21
65470;DHT22;52067;50.710;14.492;2023-04-15T12:16:22;10.86;61.59
65470;DHT22;52067;50.710;14.492;2023-04-15T12:18:52;11.07;60.92
65470;DHT22;52067;50.710;14.492;2023-04-15T12:21:21;10.71;61.75
65470;DHT22;52067;50.710;14.492;2023-04-15T12:23:52;10.53;61.22
65470;DHT22;52067;50.710;14.492;2023-04-15T12:26:25;10.71;62.06
65470;DHT22;52067;50.710;14.492;2023-04-15T12:29:10;10.59;60.33
65470;DHT22;52067;50.710;14.492;2023-04-15T12:31:45;10.18;62.65
65470;DHT22;52067;50.710;14.492;2023-04-15T12:34:11;10.25;63.07
65470;DHT22;52067;50.710;14.492;2023-04-15T12:36:36;10.63;61.69
65470;DHT22;52067;50.710;14.492;2023-04-15T12:39:03;10.68;61.85
65470;DHT22;52067;50.710;14.492;2023-04-15T12:41:29;10.59;61.83
65470;DHT22;52067;50.710;14.492;2023-04-15T12:43:54;10.79;60.52
65470;DHT22;52067;50.710;14.492;2023-04-15T12:46:20;10.88;62.53
65470;DHT22;52067;50.710;14.492;2023-04-15T12:48:46;11.10;60.94
65470;DHT22;52067;50.710;14.492;2023-04-15T12:51:12;10.92;60.79
65470;DHT22;52067;50.710;14.492;2023-04-15T12:53:37;10.88;62.08
65470;DHT22;52067;50.710;14.492;2023-04-15T12:56:03;11.44;61.75
65470;DHT22;52067;50.710;14.492;2023-04-15T12:58:28;11.06;63.12
65470;DHT22;52067;50.710;14.492;2023-04-15T13:00:54;11.14;58.75
65470;DHT22;52067;50.710;14.492;2023-04-15T13:03:20;10.92;60.77
65470;DHT22;52067;50.710;14.492;2023-04-15T13:05:45;10.89;60.74
65470;DHT22;52067;50.710;14.492;2023-04-15T13:08:10;10.71;60.16
65470;DHT22;52067;50.710;14.492;2023-04-15T13:10:36;10.65;61.69
65470;DHT22;52067;50.710;14.492;2023-04-15T13:13:02;11.44;60.46
65470;DHT22;52067;50.710;14.492;2023-04-15T13:15:28;11.65;61.05
65470;DHT22;52067;50.710;14.492;2023-04-15T13:17:53;11.90;59.36
65470;DHT22;52067;50.710;14.492;2023-04-15T13:20:19;12.41;57.67
65470;DHT22;52067;50.710;14.492;2023-04-15T13:22:45;12.78;56.77
65470;DHT22;52067;50.710;14.492;2023-04-15T13:25:10;14.04;51.27
65470;DHT22;52067;50.710;14.492;2023-04-15T13:27:36;16.95;45.28
65470;DHT22;52067;50.710;14.492;2023-04-15T13:30:01;16.10;46.91
65470;DHT22;52067;50.710;14.492;2023-04-15T13:32:27;18.91;39.04
65470;DHT22;52067;50.710;14.492;2023-04-15T13:34:52;20.34;36.91
65470;DHT22;52067;50.710;14.492;2023-04-15T13:37:28;19.63;39.39
65470;DHT22;52067;50.710;14.492;2023-04-15T13:39:54;18.53;37.35
65470;DHT22;52067;50.710;14.492;2023-04-15T13:42:20;16.79;41.74
65470;DHT22;52067;50.710;14.492;2023-04-15T13:44:46;15.65;45.72
65470;DHT22;52067;50.710;14.492;2023-04-15T13:47:11;14.15;47.55
65470;DHT22;52067;50.710;14.492;2023-04-15T13:49:39;14.63;48.26
65470;DHT22;52067;50.710;14.492;2023-04-15T13:52:04;14.20;48.81
65470;DHT22;52067;50.710;14.492;2023-04-15T13:54:30;13.54;50.72
65470;DHT22;52067;50.710;14.492;2023-04-15T13:56:55;13.67;51.90
65470;DHT22;52067;50.710;14.492;2023-04-15T13:59:22;13.52;50.40
65470;DHT22;52067;50.710;14.492;2023-04-15T14:01:48;12.81;52.99
65470;DHT22;52067;50.710;14.492;2023-04-15T14:04:13;12.41;55.47
65470;DHT22;52067;50.710;14.492;2023-04-15T14:06:39;12.38;53.89
65470;DHT22;52067;50.710;14.492;2023-04-15T14:09:04;12.40;53.70
65470;DHT22;52067;50.710;14.492;2023-04-15T14:11:30;12.60;55.85
65470;DHT22;52067;50.710;14.492;2023-04-15T14:13:55;12.83;53.87
65470;DHT22;52067;50.710;14.492;2023-04-15T14:16:21;12.20;54.91
65470;DHT22;52067;50.710;14.492;2023-04-15T14:18:46;12.19;55.67
65470;DHT22;52067;50.710;14.492;2023-04-15T14:21:12;12.44;54.49
65470;DHT22;52067;50.710;14.492;2023-04-15T14:23:37;12.25;53.79
65470;DHT22;52067;50.710;14.492;2023-04-15T14:26:03;11.86;54.85
65470;DHT22;52067;50.710;14.492;2023-04-15T14:28:28;11.72;55.78
65470;DHT22;52067;50.710;14.492;2023-04-15T14:30:54;11.71;55.53
65470;DHT22;52067;50.710;14.492;2023-04-15T14:33:19;11.07;58.15
65470;DHT22;52067;50.710;14.492;2023-04-15T14:35:44;11.50;58.94
65470;DHT22;52067;50.710;14.492;2023-04-15T14:38:10;11.71;57.77
65470;DHT22;52067;50.710;14.492;2023-04-15T14:40:35;11.98;56.97
65470;DHT22;52067;50.710;14.492;2023-04-15T14:43:01;12.12;55.83
65470;DHT22;52067;50.710;14.492;2023-04-15T14:45:27;12.26;54.27
65470;DHT22;52067;50.710;14.492;2023-04-15T14:47:52;12.10;54.69
65470;DHT22;52067;50.710;14.492;2023-04-15T14:50:18;12.07;56.94
65470;DHT22;52067;50.710;14.492;2023-04-15T14:52:43;12.15;56.36
65470;DHT22;52067;50.710;14.492;2023-04-15T14:55:10;12.25;54.92
65470;DHT22;52067;50.710;14.492;2023-04-15T14:57:37;12.17;56.50
65470;DHT22;52067;50.710;14.492;2023-04-15T15:00:03;12.47;54.15
65470;DHT22;52067;50.710;14.492;2023-04-15T15:02:29;12.48;54.92
65470;DHT22;52067;50.710;14.492;2023-04-15T15:04:56;12.47;54.35
65470;DHT22;52067;50.710;14.492;2023-04-15T15:07:22;12.10;55.51
65470;DHT22;52067;50.710;14.492;2023-04-15T15:09:47;12.20;55.31
65470;DHT22;52067;50.710;14.492;2023-04-15T15:12:12;12.23;57.14
65470;DHT22;52067;50.710;14.492;2023-04-15T15:14:38;12.07;54.96
65470;DHT22;52067;50.710;14.492;2023-04-15T15:17:03;12.23;56.58
65470;DHT22;52067;50.710;14.492;2023-04-15T15:19:29;12.33;55.67
65470;DHT22;52067;50.710;14.492;2023-04-15T15:21:54;12.37;55.54
65470;DHT22;52067;50.710;14.492;2023-04-15T15:24:19;12.38;55.01
65470;DHT22;52067;50.710;14.492;2023-04-15T15:26:45;12.23;54.29
65470;DHT22;52067;50.710;14.492;2023-04-15T15:29:10;12.20;55.67
65470;DHT22;52067;50.710;14.492;2023-04-15T15:31:36;12.22;56.36
65470;DHT22;52067;50.710;14.492;2023-04-15T15:34:02;12.20;57.64
65470;DHT22;52067;50.710;14.492;2023-04-15T15:36:29;12.16;55.01
65470;DHT22;52067;50.710;14.492;2023-04-15T15:38:56;12.25;57.24
65470;DHT22;52067;50.710;14.492;2023-04-15T15:41:22;12.33;55.49